createdAt,value
2023-05-25T00:01:30.718Z,5.10
2023-05-25T00:04:00.703Z,4.10
2023-05-25T00:06:30.605Z,4.70
2023-05-25T00:08:58.754Z,4.32
2023-05-25T00:11:27.172Z,3.95
2023-05-25T00:13:55.650Z,4.47
2023-05-25T00:16:23.432Z,4.38
2023-05-25T00:18:53.115Z,4.28
2023-05-25T00:23:50.039Z,4.55
2023-05-25T00:26:17.860Z,4.05
2023-05-25T00:28:46.120Z,5.20
2023-05-25T00:31:14.058Z,4.10
2023-05-25T00:33:41.995Z,5.18
2023-05-25T00:36:10.483Z,4.60
2023-05-25T00:38:39.827Z,4.25
2023-05-25T00:41:07.620Z,4.32
2023-05-25T00:43:35.722Z,4.68
2023-05-25T00:46:04.243Z,4.95
2023-05-25T00:48:32.390Z,4.70
2023-05-25T00:51:01.302Z,4.32
2023-05-25T00:53:29.136Z,4.45
2023-05-25T00:56:06.188Z,4.55
2023-05-25T00:58:35.830Z,4.43
2023-05-25T01:03:39.000Z,4.63
2023-05-25T01:06:13.533Z,4.53
2023-05-25T01:08:43.562Z,5.60
2023-05-25T01:11:16.894Z,5.43
2023-05-25T01:13:46.349Z,5.10
2023-05-25T01:16:14.280Z,4.85
2023-05-25T01:18:43.289Z,5.32
2023-05-25T01:21:20.150Z,5.68
2023-05-25T01:23:54.558Z,5.03
2023-05-25T01:26:24.817Z,5.03
2023-05-25T01:28:53.925Z,5.05
2023-05-25T01:31:23.861Z,5.03
2023-05-25T01:33:52.801Z,4.35
2023-05-25T01:36:22.022Z,4.25
2023-05-25T01:38:50.910Z,4.25
2023-05-25T01:41:18.681Z,4.45
2023-05-25T01:43:46.792Z,4.25
2023-05-25T01:46:22.949Z,3.85
2023-05-25T01:48:56.949Z,4.30
2023-05-25T01:51:33.855Z,4.47
2023-05-25T01:54:08.015Z,4.13
2023-05-25T01:56:37.562Z,4.55
2023-05-25T01:59:09.078Z,4.65
2023-05-25T02:01:38.485Z,4.72
2023-05-25T02:04:07.012Z,4.50
2023-05-25T02:06:37.016Z,4.47
2023-05-25T02:09:05.618Z,4.40
2023-05-25T02:11:33.452Z,4.30
2023-05-25T02:14:01.237Z,4.43
2023-05-25T02:16:30.560Z,5.13
2023-05-25T02:18:59.139Z,4.68
2023-05-25T02:21:26.890Z,4.78
2023-05-25T02:23:58.434Z,5.43
2023-05-25T02:26:26.326Z,5.63
2023-05-25T02:28:54.201Z,5.75
2023-05-25T02:31:22.684Z,5.32
2023-05-25T02:33:50.462Z,4.47
2023-05-25T02:36:18.210Z,4.90
2023-05-25T02:38:47.814Z,5.43
2023-05-25T02:43:44.622Z,5.43
2023-05-25T02:46:12.787Z,5.53
2023-05-25T02:48:40.838Z,5.10
2023-05-25T02:51:08.587Z,5.28
2023-05-25T02:53:37.297Z,4.47
2023-05-25T02:56:06.427Z,4.70
2023-05-25T02:58:35.521Z,4.78
2023-05-25T03:01:04.425Z,4.75
2023-05-25T03:03:32.478Z,4.70
2023-05-25T03:06:00.353Z,4.43
2023-05-25T03:08:28.593Z,5.00
2023-05-25T03:10:56.463Z,4.75
2023-05-25T03:13:24.226Z,5.57
2023-05-25T03:15:53.802Z,4.90
2023-05-25T03:18:21.549Z,4.88
2023-05-25T03:20:49.416Z,4.80
2023-05-25T03:23:17.443Z,4.45
2023-05-25T03:25:45.955Z,5.43
2023-05-25T03:28:13.987Z,5.07
2023-05-25T03:30:42.909Z,5.10
2023-05-25T03:33:13.838Z,4.95
2023-05-25T03:35:41.821Z,5.80
2023-05-25T03:38:10.096Z,5.38
2023-05-25T03:40:37.901Z,4.70
2023-05-25T03:43:05.653Z,5.38
2023-05-25T03:45:33.662Z,5.35
2023-05-25T03:48:01.532Z,5.22
2023-05-25T03:50:30.799Z,5.35
2023-05-25T03:52:58.984Z,4.53
2023-05-25T03:55:26.704Z,5.07
2023-05-25T03:57:54.498Z,4.90
2023-05-25T04:00:22.673Z,5.78
2023-05-25T04:02:50.458Z,4.80
2023-05-25T04:05:18.345Z,5.22
2023-05-25T04:07:47.945Z,5.60
2023-05-25T04:12:43.253Z,3.72
2023-05-25T04:15:14.605Z,6.22
2023-05-25T04:17:42.402Z,4.13
2023-05-25T04:20:11.019Z,4.25
2023-05-25T04:22:39.969Z,4.30
2023-05-25T04:25:10.449Z,4.32
2023-05-25T04:27:38.263Z,4.50
2023-05-25T04:30:07.442Z,4.30
2023-05-25T04:32:37.494Z,5.32
2023-05-25T04:35:06.570Z,5.32
2023-05-25T04:37:37.384Z,5.70
2023-05-25T04:40:12.151Z,6.22
2023-05-25T04:42:42.183Z,5.38
2023-05-25T04:45:11.209Z,5.47
2023-05-25T04:47:41.037Z,6.00
2023-05-25T04:50:11.442Z,5.55
2023-05-25T04:52:39.264Z,6.65
2023-05-25T04:55:07.946Z,6.30
2023-05-25T04:57:36.154Z,6.00
2023-05-25T05:00:10.045Z,5.95
2023-05-25T05:02:38.139Z,6.28
2023-05-25T05:05:06.631Z,6.70
2023-05-25T05:07:34.887Z,7.28
2023-05-25T05:10:02.612Z,6.38
2023-05-25T05:12:30.394Z,7.00
2023-05-25T05:14:59.299Z,6.43
2023-05-25T05:17:30.641Z,7.03
2023-05-25T05:19:58.850Z,6.47
2023-05-25T05:22:27.209Z,6.68
2023-05-25T05:24:55.422Z,6.40
2023-05-25T05:27:23.243Z,7.18
2023-05-25T05:29:51.026Z,7.70
2023-05-25T05:32:19.137Z,6.63
2023-05-25T05:34:48.268Z,6.90
2023-05-25T05:37:16.531Z,6.28
2023-05-25T05:39:44.281Z,6.93
2023-05-25T05:42:12.355Z,6.88
2023-05-25T05:44:40.121Z,6.72
2023-05-25T05:47:08.102Z,6.30
2023-05-25T05:49:38.275Z,6.63
2023-05-25T05:52:09.981Z,6.32
2023-05-25T05:54:38.066Z,7.03
2023-05-25T05:57:06.512Z,6.82
2023-05-25T05:59:34.241Z,6.68
2023-05-25T06:02:02.819Z,6.63
2023-05-25T06:04:30.724Z,6.47
2023-05-25T06:06:59.280Z,6.72
2023-05-25T06:09:28.498Z,6.70
2023-05-25T06:11:56.515Z,5.93
2023-05-25T06:14:25.635Z,6.25
2023-05-25T06:16:55.434Z,6.03
2023-05-25T06:19:23.655Z,5.47
2023-05-25T06:21:51.378Z,5.63
2023-05-25T06:24:19.514Z,6.63
2023-05-25T06:26:48.617Z,6.20
2023-05-25T06:29:17.926Z,6.13
2023-05-25T06:31:45.968Z,5.80
2023-05-25T06:34:13.987Z,6.43
2023-05-25T06:36:42.093Z,5.57
2023-05-25T06:39:10.190Z,6.47
2023-05-25T06:41:40.502Z,6.60
2023-05-25T06:44:10.199Z,5.45
2023-05-25T06:49:07.343Z,7.05
2023-05-25T06:51:35.439Z,5.90
2023-05-25T06:54:03.317Z,6.10
2023-05-25T06:56:31.666Z,6.05
2023-05-25T06:58:59.428Z,5.78
2023-05-25T07:01:29.022Z,5.30
2023-05-25T07:06:24.965Z,6.15
2023-05-25T07:08:52.831Z,5.75
2023-05-25T07:11:20.983Z,5.93
2023-05-25T07:13:48.770Z,6.50
2023-05-25T07:16:16.600Z,6.05
2023-05-25T07:18:46.178Z,6.53
2023-05-25T07:23:42.048Z,6.20
2023-05-25T07:26:09.964Z,6.38
2023-05-25T07:28:38.011Z,6.43
2023-05-25T07:31:05.896Z,5.90
2023-05-25T07:33:34.482Z,6.70
2023-05-25T07:36:03.805Z,5.93
2023-05-25T07:38:31.591Z,6.95
2023-05-25T07:40:59.823Z,6.05
2023-05-25T07:43:28.039Z,6.97
2023-05-25T07:45:55.958Z,6.88
2023-05-25T07:48:24.208Z,6.15
2023-05-25T07:50:52.514Z,6.10
2023-05-25T07:53:21.641Z,5.50
2023-05-25T07:55:50.024Z,5.30
2023-05-25T07:58:18.624Z,5.55
2023-05-25T08:00:46.484Z,5.53
2023-05-25T08:03:14.568Z,5.82
2023-05-25T08:05:44.644Z,5.32
2023-05-25T08:08:14.284Z,6.38
2023-05-25T08:10:44.222Z,5.65
2023-05-25T08:13:12.226Z,5.60
2023-05-25T08:15:40.054Z,5.32
2023-05-25T08:18:08.407Z,5.85
2023-05-25T08:20:36.977Z,5.53
2023-05-25T08:23:04.884Z,5.53
2023-05-25T08:25:32.830Z,6.00
2023-05-25T08:28:02.587Z,5.70
2023-05-25T08:30:30.786Z,5.90
2023-05-25T08:32:58.886Z,6.25
2023-05-25T08:35:26.641Z,5.82
2023-05-25T08:37:54.526Z,5.90
2023-05-25T08:40:24.604Z,6.65
2023-05-25T08:42:52.417Z,6.05
2023-05-25T08:45:34.322Z,5.95
2023-05-25T08:48:08.091Z,7.07
2023-05-25T08:50:36.897Z,6.40
2023-05-25T08:53:10.113Z,5.73
2023-05-25T08:55:40.326Z,6.70
2023-05-25T08:58:15.820Z,6.18
2023-05-25T09:00:56.232Z,5.82
2023-05-25T09:03:25.919Z,6.13
2023-05-25T09:05:54.776Z,6.03
2023-05-25T09:08:23.409Z,5.10
2023-05-25T09:10:53.459Z,5.65
2023-05-25T09:13:22.784Z,6.45
2023-05-25T09:15:53.645Z,5.95
2023-05-25T09:18:21.855Z,5.85
2023-05-25T09:20:50.044Z,5.72
2023-05-25T09:23:18.659Z,6.15
2023-05-25T09:25:50.662Z,6.28
2023-05-25T09:30:53.565Z,5.80
2023-05-25T09:33:21.927Z,5.03
2023-05-25T09:35:51.512Z,5.22
2023-05-25T09:40:48.903Z,5.00
2023-05-25T09:43:28.312Z,5.28
2023-05-25T09:46:07.730Z,4.90
2023-05-25T09:48:36.173Z,5.28
2023-05-25T09:51:03.989Z,5.22
2023-05-25T09:53:33.352Z,4.22
2023-05-25T09:56:03.201Z,4.60
2023-05-25T09:58:31.825Z,4.43
2023-05-25T10:01:00.038Z,3.75
2023-05-25T10:03:29.281Z,5.10
2023-05-25T10:05:57.269Z,4.35
2023-05-25T10:08:28.904Z,4.18
2023-05-25T10:10:57.004Z,3.83
2023-05-25T10:13:28.285Z,4.60
2023-05-25T10:15:57.259Z,4.30
2023-05-25T10:18:27.430Z,4.28
2023-05-25T10:21:03.947Z,4.18
2023-05-25T10:23:37.097Z,4.25
2023-05-25T10:26:09.239Z,4.55
2023-05-25T10:28:40.691Z,3.70
2023-05-25T10:31:11.216Z,4.10
2023-05-25T10:33:39.111Z,4.00
2023-05-25T10:36:11.489Z,4.18
2023-05-25T10:38:42.265Z,3.92
2023-05-25T10:41:11.563Z,4.10
2023-05-25T10:43:40.258Z,4.28
2023-05-25T10:46:09.471Z,3.63
2023-05-25T10:48:39.425Z,3.55
2023-05-25T10:51:11.778Z,3.65
2023-05-25T10:53:40.043Z,3.80
2023-05-25T10:56:10.981Z,3.63
2023-05-25T10:58:43.623Z,4.22
2023-05-25T11:01:14.077Z,3.78
2023-05-25T11:04:15.938Z,3.67
2023-05-25T11:07:17.051Z,3.55
2023-05-25T11:09:56.276Z,3.83
2023-05-25T11:12:24.505Z,4.07
2023-05-25T11:15:18.870Z,4.15
2023-05-25T11:18:00.444Z,3.92
2023-05-25T11:20:30.088Z,3.65
2023-05-25T11:25:52.116Z,3.50
2023-05-25T11:28:20.406Z,3.50
2023-05-25T11:30:49.088Z,3.30
2023-05-25T11:33:17.803Z,4.00
2023-05-25T11:35:49.395Z,3.67
2023-05-25T11:38:18.024Z,4.10
2023-05-25T11:40:45.837Z,3.80
2023-05-25T11:43:16.219Z,3.70
2023-05-25T11:45:44.352Z,3.85
2023-05-25T11:48:14.801Z,3.60
2023-05-25T11:50:43.090Z,3.75
2023-05-25T11:53:11.733Z,3.65
2023-05-25T11:55:41.040Z,3.72
2023-05-25T11:58:09.364Z,4.55
2023-05-25T12:00:38.487Z,4.18
2023-05-25T12:03:06.524Z,3.75
2023-05-25T12:05:41.419Z,4.00
2023-05-25T12:08:09.394Z,3.85
2023-05-25T12:10:51.027Z,4.55
2023-05-25T12:13:18.940Z,3.90
2023-05-25T12:15:48.245Z,3.85
2023-05-25T12:18:16.574Z,3.67
2023-05-25T12:20:44.654Z,3.95
2023-05-25T12:23:13.842Z,4.20
2023-05-25T12:25:50.254Z,4.70
2023-05-25T12:28:18.661Z,3.92
2023-05-25T12:30:47.666Z,4.10
2023-05-25T12:33:16.977Z,4.05
2023-05-25T12:35:47.689Z,4.72
2023-05-25T12:38:17.438Z,4.47
2023-05-25T12:40:46.050Z,4.22
2023-05-25T12:43:14.648Z,4.20
2023-05-25T12:45:43.398Z,4.68
2023-05-25T12:48:11.973Z,4.35
2023-05-25T12:50:58.287Z,5.07
2023-05-25T12:53:27.247Z,4.78
2023-05-25T12:56:04.377Z,4.88
2023-05-25T12:58:32.199Z,4.05
2023-05-25T13:01:00.247Z,4.00
2023-05-25T13:03:28.396Z,4.35
2023-05-25T13:06:03.275Z,3.78
2023-05-25T13:08:31.318Z,3.80
2023-05-25T13:10:59.970Z,3.85
2023-05-25T13:13:27.884Z,4.13
2023-05-25T13:15:55.905Z,4.28
2023-05-25T13:18:23.710Z,3.90
2023-05-25T13:20:55.189Z,4.68
2023-05-25T13:23:26.598Z,4.18
2023-05-25T13:25:54.336Z,4.03
2023-05-25T13:28:22.076Z,4.63
2023-05-25T13:30:50.036Z,4.45
2023-05-25T13:33:17.773Z,3.70
2023-05-25T13:35:58.834Z,4.10
2023-05-25T13:38:29.659Z,4.53
2023-05-25T13:40:57.764Z,4.45
2023-05-25T13:43:25.845Z,4.40
2023-05-25T13:45:53.662Z,4.30
2023-05-25T13:48:21.521Z,4.40
2023-05-25T13:50:49.991Z,4.50
2023-05-25T13:53:18.054Z,4.50
2023-05-25T13:55:47.722Z,4.28
2023-05-25T13:58:16.011Z,4.50
2023-05-25T14:00:44.259Z,4.65
2023-05-25T14:03:12.339Z,4.70
2023-05-25T14:05:40.454Z,4.72
2023-05-25T14:08:08.251Z,4.97
2023-05-25T14:10:36.197Z,5.18
2023-05-25T14:13:05.584Z,4.53
2023-05-25T14:15:33.329Z,4.68
2023-05-25T14:18:01.195Z,4.57
2023-05-25T14:20:29.307Z,5.18
2023-05-25T14:22:57.164Z,4.78
2023-05-25T14:25:25.140Z,5.15
2023-05-25T14:27:54.468Z,4.47
2023-05-25T14:30:23.766Z,4.50
2023-05-25T14:32:51.998Z,5.05
2023-05-25T14:35:20.107Z,4.65
2023-05-25T14:37:48.132Z,4.13
2023-05-25T14:40:15.890Z,4.45
2023-05-25T14:42:43.863Z,4.65
2023-05-25T14:45:13.974Z,4.68
2023-05-25T14:47:44.686Z,4.18
2023-05-25T14:50:12.567Z,4.35
2023-05-25T14:52:41.916Z,4.20
2023-05-25T14:55:10.955Z,4.22
2023-05-25T14:57:39.315Z,4.25
2023-05-25T15:00:08.564Z,4.00
2023-05-25T15:02:36.610Z,3.70
2023-05-25T15:05:06.432Z,3.80
2023-05-25T15:07:34.174Z,4.53
2023-05-25T15:10:02.116Z,3.92
2023-05-25T15:12:29.829Z,4.28
2023-05-25T15:14:57.594Z,4.13
2023-05-25T15:17:25.574Z,4.10
2023-05-25T15:19:53.311Z,5.50
2023-05-25T15:22:22.564Z,4.43
2023-05-25T15:24:51.073Z,4.60
2023-05-25T15:27:18.880Z,5.40
2023-05-25T15:29:46.984Z,5.20
2023-05-25T15:32:17.915Z,4.18
2023-05-25T15:34:45.905Z,3.90
2023-05-25T15:37:13.719Z,4.07
2023-05-25T15:39:43.178Z,4.00
2023-05-25T15:44:38.757Z,3.80
2023-05-25T15:47:06.955Z,4.63
2023-05-25T15:49:36.773Z,4.55
2023-05-25T15:52:04.993Z,4.90
2023-05-25T15:54:32.938Z,4.28
2023-05-25T15:57:02.428Z,4.10
2023-05-25T16:04:46.514Z,4.00
2023-05-25T16:07:14.296Z,3.50
2023-05-25T16:09:42.068Z,4.30
2023-05-25T16:15:00.656Z,4.70
2023-05-25T16:17:29.599Z,4.47
2023-05-25T16:19:57.428Z,4.82
2023-05-25T16:22:25.232Z,5.20
2023-05-25T16:24:53.521Z,4.40
2023-05-25T16:27:22.770Z,4.72
2023-05-25T16:29:50.804Z,4.05
2023-05-25T16:32:19.187Z,4.28
2023-05-25T16:34:46.993Z,4.55
2023-05-25T16:37:14.739Z,4.38
2023-05-25T16:39:43.003Z,4.55
2023-05-25T16:42:10.756Z,4.80
2023-05-25T16:44:39.846Z,4.85
2023-05-25T16:47:08.380Z,4.85
2023-05-25T16:49:36.137Z,4.60
2023-05-25T16:52:03.870Z,5.75
2023-05-25T16:54:32.159Z,3.80
2023-05-25T16:56:59.925Z,4.30
2023-05-25T16:59:28.019Z,4.22
2023-05-25T17:01:58.043Z,4.13
2023-05-25T17:04:25.829Z,4.80
2023-05-25T17:06:53.553Z,4.25
2023-05-25T17:09:21.647Z,4.43
2023-05-25T17:11:50.365Z,4.65
2023-05-25T17:16:46.740Z,4.35
2023-05-25T17:19:15.957Z,5.05
2023-05-25T17:21:43.976Z,5.03
2023-05-25T17:24:11.979Z,4.38
2023-05-25T17:26:39.738Z,5.28
2023-05-25T17:29:07.493Z,4.53
2023-05-25T17:31:36.406Z,4.65
2023-05-25T17:34:04.183Z,5.10
2023-05-25T17:36:33.299Z,5.35
2023-05-25T17:39:02.315Z,4.70
2023-05-25T17:41:30.793Z,4.30
2023-05-25T17:43:58.505Z,4.60
2023-05-25T17:46:26.613Z,4.07
2023-05-25T17:48:54.436Z,4.70
2023-05-25T17:51:22.314Z,3.90
2023-05-25T17:53:51.662Z,4.82
2023-05-25T17:56:19.442Z,5.07
2023-05-25T17:58:47.854Z,4.80
2023-05-25T18:01:16.685Z,4.53
2023-05-25T18:03:44.643Z,3.73
2023-05-25T18:06:12.439Z,4.63
2023-05-25T18:08:40.393Z,4.72
2023-05-25T18:11:09.506Z,4.75
2023-05-25T18:13:37.233Z,4.45
2023-05-25T18:16:05.229Z,4.25
2023-05-25T18:18:33.034Z,4.45
2023-05-25T18:21:01.263Z,4.30
2023-05-25T18:23:29.303Z,4.85
2023-05-25T18:25:57.097Z,4.90
2023-05-25T18:28:26.979Z,4.10
2023-05-25T18:30:56.142Z,4.60
2023-05-25T18:33:23.913Z,4.18
2023-05-25T18:35:51.648Z,4.95
2023-05-25T18:38:19.991Z,4.13
2023-05-25T18:40:47.765Z,4.45
2023-05-25T18:43:15.560Z,4.68
2023-05-25T18:45:45.254Z,5.45
2023-05-25T18:48:13.356Z,4.93
2023-05-25T18:50:42.168Z,4.43
2023-05-25T18:53:11.050Z,4.25
2023-05-25T18:55:39.060Z,4.13
2023-05-25T18:58:06.930Z,4.70
2023-05-25T19:00:35.710Z,4.97
2023-05-25T19:03:06.057Z,4.55
2023-05-25T19:05:33.931Z,4.35
2023-05-25T19:08:02.168Z,4.32
2023-05-25T19:10:30.036Z,5.03
2023-05-25T19:12:57.992Z,5.05
2023-05-25T19:15:26.120Z,5.03
2023-05-25T19:17:53.934Z,4.82
2023-05-25T19:20:23.202Z,4.22
2023-05-25T19:22:51.384Z,5.00
2023-05-25T19:25:19.373Z,4.93
2023-05-25T19:27:47.157Z,4.15
2023-05-25T19:30:15.669Z,4.70
2023-05-25T19:32:43.465Z,4.90
2023-05-25T19:35:11.601Z,4.32
2023-05-25T19:37:42.221Z,4.75
2023-05-25T19:40:11.079Z,4.93
2023-05-25T19:42:38.933Z,4.55
2023-05-25T19:45:07.898Z,4.30
2023-05-25T19:47:35.948Z,5.10
2023-05-25T19:50:04.010Z,4.90
2023-05-25T19:52:32.130Z,4.88
2023-05-25T19:55:01.491Z,4.43
2023-05-25T19:57:29.364Z,5.45
2023-05-25T19:59:57.726Z,4.70
2023-05-25T20:02:25.682Z,4.68
2023-05-25T20:04:53.519Z,4.63
2023-05-25T20:07:21.835Z,4.78
2023-05-25T20:09:49.650Z,4.32
2023-05-25T20:12:18.902Z,4.68
2023-05-25T20:14:47.984Z,4.43
2023-05-25T20:17:16.046Z,4.70
2023-05-25T20:19:43.846Z,4.68
2023-05-25T20:22:11.799Z,4.78
2023-05-25T20:24:39.540Z,4.38
2023-05-25T20:27:07.348Z,4.07
2023-05-25T20:29:37.525Z,4.55
2023-05-25T20:32:07.093Z,4.28
2023-05-25T20:34:35.059Z,5.38
2023-05-25T20:37:03.084Z,4.57
2023-05-25T20:39:31.061Z,4.80
2023-05-25T20:41:58.791Z,4.55
2023-05-25T20:44:27.602Z,4.75
2023-05-25T20:46:56.724Z,5.32
2023-05-25T20:49:25.997Z,4.95
2023-05-25T20:51:54.177Z,4.90
2023-05-25T20:54:21.900Z,5.22
2023-05-25T20:56:51.163Z,4.18
2023-05-25T20:59:19.372Z,5.57
2023-05-25T21:01:47.177Z,5.50
2023-05-25T21:04:16.356Z,5.07
2023-05-25T21:06:44.290Z,6.32
2023-05-25T21:09:12.097Z,5.75
2023-05-25T21:11:39.816Z,6.38
2023-05-25T21:14:08.276Z,7.28
2023-05-25T21:16:36.181Z,5.50
2023-05-25T21:19:03.967Z,6.50
2023-05-25T21:21:34.245Z,6.13
2023-05-25T21:24:02.487Z,5.35
2023-05-25T21:26:31.242Z,6.30
2023-05-25T21:29:00.595Z,5.55
2023-05-25T21:31:28.413Z,5.78
2023-05-25T21:33:57.523Z,6.82
2023-05-25T21:36:26.583Z,6.43
2023-05-25T21:38:55.689Z,6.07
2023-05-25T21:41:23.534Z,5.55
2023-05-25T21:43:51.726Z,5.50
2023-05-25T21:46:19.530Z,6.35
2023-05-25T21:48:47.284Z,5.93
2023-05-25T21:51:15.302Z,6.32
2023-05-25T21:53:43.092Z,6.03
2023-05-25T21:56:12.210Z,6.65
2023-05-25T21:58:40.537Z,6.78
2023-05-25T22:01:08.269Z,6.13
2023-05-25T22:03:36.133Z,6.40
2023-05-25T22:06:04.666Z,6.70
2023-05-25T22:08:32.413Z,6.05
2023-05-25T22:11:00.153Z,6.43
2023-05-25T22:13:29.790Z,7.05
2023-05-25T22:18:25.227Z,6.45
2023-05-25T22:20:53.545Z,5.82
2023-05-25T22:23:21.300Z,6.47
2023-05-25T22:25:48.985Z,6.35
2023-05-25T22:28:17.385Z,6.63
2023-05-25T22:30:46.527Z,6.15
2023-05-25T22:33:14.300Z,5.75
2023-05-25T22:35:42.537Z,5.80
2023-05-25T22:38:10.263Z,5.95
2023-05-25T22:40:38.010Z,6.97
2023-05-25T22:43:13.037Z,6.55
2023-05-25T22:45:41.283Z,6.75
2023-05-25T22:48:12.684Z,6.25
2023-05-25T22:50:41.379Z,6.63
2023-05-25T22:53:09.127Z,6.95
2023-05-25T22:55:36.914Z,7.18
2023-05-25T22:58:05.171Z,6.28
2023-05-25T23:00:33.022Z,7.15
2023-05-25T23:03:03.260Z,7.07
2023-05-25T23:05:34.269Z,7.30
2023-05-25T23:08:01.995Z,6.35
2023-05-25T23:10:29.751Z,5.45
2023-05-25T23:12:57.781Z,7.00
2023-05-25T23:15:25.501Z,6.78
2023-05-25T23:17:53.366Z,7.00
2023-05-25T23:20:22.083Z,7.25
2023-05-25T23:22:51.292Z,6.47
2023-05-25T23:25:19.073Z,6.63
2023-05-25T23:27:47.376Z,6.55
2023-05-25T23:30:16.110Z,6.50
2023-05-25T23:32:44.002Z,6.28
2023-05-25T23:35:12.178Z,6.90
2023-05-25T23:37:39.875Z,5.82
2023-05-25T23:40:09.815Z,7.28
2023-05-25T23:42:41.857Z,6.18
2023-05-25T23:45:10.337Z,6.88
2023-05-25T23:47:38.095Z,6.15
2023-05-25T23:50:07.028Z,6.40
2023-05-25T23:52:34.838Z,6.30
2023-05-25T23:55:02.674Z,6.35
2023-05-25T23:57:32.245Z,6.35
